sensor_id;sensor_type;location;lat;lon;timestamp;temperature;humidity
24011;DHT22;12217;50.792;4.372;2023-08-31T00:00:10;15.10;99.90
24011;DHT22;12217;50.792;4.372;2023-08-31T00:02:36;15.20;99.90
24011;DHT22;12217;50.792;4.372;2023-08-31T00:05:02;15.20;99.90
24011;DHT22;12217;50.792;4.372;2023-08-31T00:07:29;15.30;99.90
24011;DHT22;12217;50.792;4.372;2023-08-31T00:09:54;15.30;99.90
24011;DHT22;12217;50.792;4.372;2023-08-31T00:12:20;15.10;99.90
24011;DHT22;12217;50.792;4.372;2023-08-31T00:14:49;15.00;99.90
24011;DHT22;12217;50.792;4.372;2023-08-31T00:17:15;15.00;99.90
24011;DHT22;12217;50.792;4.372;2023-08-31T00:19:40;15.00;99.90
24011;DHT22;12217;50.792;4.372;2023-08-31T00:22:06;15.10;99.90
24011;DHT22;12217;50.792;4.372;2023-08-31T00:24:31;15.10;99.90
24011;DHT22;12217;50.792;4.372;2023-08-31T00:27:01;15.20;99.90
24011;DHT22;12217;50.792;4.372;2023-08-31T00:29:27;15.20;99.90
24011;DHT22;12217;50.792;4.372;2023-08-31T00:31:52;15.20;99.90
24011;DHT22;12217;50.792;4.372;2023-08-31T00:34:19;15.10;99.90
24011;DHT22;12217;50.792;4.372;2023-08-31T00:36:44;15.10;99.90
24011;DHT22;12217;50.792;4.372;2023-08-31T00:39:10;15.10;99.90
24011;DHT22;12217;50.792;4.372;2023-08-31T00:41:36;15.20;99.90
24011;DHT22;12217;50.792;4.372;2023-08-31T00:44:03;15.20;99.90
24011;DHT22;12217;50.792;4.372;2023-08-31T00:46:31;15.30;99.90
24011;DHT22;12217;50.792;4.372;2023-08-31T00:48:57;15.30;99.90
24011;DHT22;12217;50.792;4.372;2023-08-31T00:51:24;15.20;99.90
24011;DHT22;12217;50.792;4.372;2023-08-31T00:53:51;15.20;99.90
24011;DHT22;12217;50.792;4.372;2023-08-31T00:56:21;15.20;99.90
24011;DHT22;12217;50.792;4.372;2023-08-31T00:58:46;15.20;99.90
24011;DHT22;12217;50.792;4.372;2023-08-31T01:03:52;15.20;99.90
24011;DHT22;12217;50.792;4.372;2023-08-31T01:06:28;15.20;99.90
24011;DHT22;12217;50.792;4.372;2023-08-31T01:09:04;15.20;99.90
24011;DHT22;12217;50.792;4.372;2023-08-31T01:12:10;15.20;99.90
24011;DHT22;12217;50.792;4.372;2023-08-31T01:14:33;15.30;99.90
24011;DHT22;12217;50.792;4.372;2023-08-31T01:17:00;15.30;99.90
24011;DHT22;12217;50.792;4.372;2023-08-31T01:22:18;15.30;99.90
24011;DHT22;12217;50.792;4.372;2023-08-31T01:24:47;15.40;99.90
24011;DHT22;12217;50.792;4.372;2023-08-31T01:27:13;15.30;99.90
24011;DHT22;12217;50.792;4.372;2023-08-31T01:29:39;15.10;99.90
24011;DHT22;12217;50.792;4.372;2023-08-31T01:32:06;15.10;99.90
24011;DHT22;12217;50.792;4.372;2023-08-31T01:34:32;15.10;99.90
24011;DHT22;12217;50.792;4.372;2023-08-31T01:37:01;15.10;99.90
24011;DHT22;12217;50.792;4.372;2023-08-31T01:39:44;15.00;99.90
24011;DHT22;12217;50.792;4.372;2023-08-31T01:42:15;15.00;99.90
24011;DHT22;12217;50.792;4.372;2023-08-31T01:44:42;15.00;99.90
24011;DHT22;12217;50.792;4.372;2023-08-31T01:47:08;15.00;99.90
24011;DHT22;12217;50.792;4.372;2023-08-31T01:49:41;15.00;99.90
24011;DHT22;12217;50.792;4.372;2023-08-31T01:52:06;15.10;99.90
24011;DHT22;12217;50.792;4.372;2023-08-31T01:54:33;15.20;99.90
24011;DHT22;12217;50.792;4.372;2023-08-31T01:56:59;15.10;99.90
24011;DHT22;12217;50.792;4.372;2023-08-31T01:59:25;15.10;99.90
24011;DHT22;12217;50.792;4.372;2023-08-31T02:01:52;15.10;99.90
24011;DHT22;12217;50.792;4.372;2023-08-31T02:04:17;15.30;99.90
24011;DHT22;12217;50.792;4.372;2023-08-31T02:06:43;15.20;99.90
24011;DHT22;12217;50.792;4.372;2023-08-31T02:09:08;15.20;99.90
24011;DHT22;12217;50.792;4.372;2023-08-31T02:11:34;15.20;99.90
24011;DHT22;12217;50.792;4.372;2023-08-31T02:14:04;15.10;99.90
24011;DHT22;12217;50.792;4.372;2023-08-31T02:16:30;15.00;99.90
24011;DHT22;12217;50.792;4.372;2023-08-31T02:18:56;15.10;99.90
24011;DHT22;12217;50.792;4.372;2023-08-31T02:21:22;15.00;99.90
24011;DHT22;12217;50.792;4.372;2023-08-31T02:23:48;15.10;99.90
24011;DHT22;12217;50.792;4.372;2023-08-31T02:26:14;15.10;99.90
24011;DHT22;12217;50.792;4.372;2023-08-31T02:28:39;15.10;99.90
24011;DHT22;12217;50.792;4.372;2023-08-31T02:31:05;15.00;99.90
24011;DHT22;12217;50.792;4.372;2023-08-31T02:33:31;15.10;99.90
24011;DHT22;12217;50.792;4.372;2023-08-31T02:35:56;15.00;99.90
24011;DHT22;12217;50.792;4.372;2023-08-31T02:38:23;15.10;99.90
24011;DHT22;12217;50.792;4.372;2023-08-31T02:40:49;15.20;99.90
24011;DHT22;12217;50.792;4.372;2023-08-31T02:43:15;15.20;99.90
24011;DHT22;12217;50.792;4.372;2023-08-31T02:45:41;15.30;99.90
24011;DHT22;12217;50.792;4.372;2023-08-31T02:48:07;15.20;99.90
24011;DHT22;12217;50.792;4.372;2023-08-31T02:50:34;15.20;99.90
24011;DHT22;12217;50.792;4.372;2023-08-31T02:53:00;15.30;99.90
24011;DHT22;12217;50.792;4.372;2023-08-31T02:55:26;15.30;99.90
24011;DHT22;12217;50.792;4.372;2023-08-31T02:57:51;15.20;99.90
24011;DHT22;12217;50.792;4.372;2023-08-31T03:00:17;15.00;99.90
24011;DHT22;12217;50.792;4.372;2023-08-31T03:02:47;15.00;99.90
24011;DHT22;12217;50.792;4.372;2023-08-31T03:05:13;15.10;99.90
24011;DHT22;12217;50.792;4.372;2023-08-31T03:07:38;14.90;99.90
24011;DHT22;12217;50.792;4.372;2023-08-31T03:10:04;15.00;99.90
24011;DHT22;12217;50.792;4.372;2023-08-31T03:12:30;15.00;99.90
24011;DHT22;12217;50.792;4.372;2023-08-31T03:14:56;15.10;99.90
24011;DHT22;12217;50.792;4.372;2023-08-31T03:17:22;15.00;99.90
24011;DHT22;12217;50.792;4.372;2023-08-31T03:19:47;15.10;99.90
24011;DHT22;12217;50.792;4.372;2023-08-31T03:22:13;15.20;99.90
24011;DHT22;12217;50.792;4.372;2023-08-31T03:24:38;15.20;99.90
24011;DHT22;12217;50.792;4.372;2023-08-31T03:27:04;15.20;99.90
24011;DHT22;12217;50.792;4.372;2023-08-31T03:29:30;15.20;99.90
24011;DHT22;12217;50.792;4.372;2023-08-31T03:31:57;15.20;99.90
24011;DHT22;12217;50.792;4.372;2023-08-31T03:34:23;15.20;99.90
24011;DHT22;12217;50.792;4.372;2023-08-31T03:36:48;15.20;99.90
24011;DHT22;12217;50.792;4.372;2023-08-31T03:39:15;15.30;99.90
24011;DHT22;12217;50.792;4.372;2023-08-31T03:41:41;15.40;99.90
24011;DHT22;12217;50.792;4.372;2023-08-31T03:44:06;15.40;99.90
24011;DHT22;12217;50.792;4.372;2023-08-31T03:46:32;15.40;99.90
24011;DHT22;12217;50.792;4.372;2023-08-31T03:48:58;15.40;99.90
24011;DHT22;12217;50.792;4.372;2023-08-31T03:51:23;15.40;99.90
24011;DHT22;12217;50.792;4.372;2023-08-31T03:53:49;15.30;99.90
24011;DHT22;12217;50.792;4.372;2023-08-31T03:56:14;15.20;99.90
24011;DHT22;12217;50.792;4.372;2023-08-31T03:58:40;15.20;99.90
24011;DHT22;12217;50.792;4.372;2023-08-31T04:01:06;15.20;99.90
24011;DHT22;12217;50.792;4.372;2023-08-31T04:03:31;15.20;99.90
24011;DHT22;12217;50.792;4.372;2023-08-31T04:05:57;15.20;99.90
24011;DHT22;12217;50.792;4.372;2023-08-31T04:08:23;15.30;99.90
24011;DHT22;12217;50.792;4.372;2023-08-31T04:10:48;15.40;99.90
24011;DHT22;12217;50.792;4.372;2023-08-31T04:13:14;15.30;99.90
24011;DHT22;12217;50.792;4.372;2023-08-31T04:15:39;15.20;99.90
24011;DHT22;12217;50.792;4.372;2023-08-31T04:18:05;15.10;99.90
24011;DHT22;12217;50.792;4.372;2023-08-31T04:20:32;15.10;99.90
24011;DHT22;12217;50.792;4.372;2023-08-31T04:22:58;15.00;99.90
24011;DHT22;12217;50.792;4.372;2023-08-31T04:25:23;14.90;99.90
24011;DHT22;12217;50.792;4.372;2023-08-31T04:27:49;14.90;99.90
24011;DHT22;12217;50.792;4.372;2023-08-31T04:30:15;14.90;99.90
24011;DHT22;12217;50.792;4.372;2023-08-31T04:32:41;15.00;99.90
24011;DHT22;12217;50.792;4.372;2023-08-31T04:35:07;14.90;99.90
24011;DHT22;12217;50.792;4.372;2023-08-31T04:37:33;14.90;99.90
24011;DHT22;12217;50.792;4.372;2023-08-31T04:39:59;14.90;99.90
24011;DHT22;12217;50.792;4.372;2023-08-31T04:42:25;14.90;99.90
24011;DHT22;12217;50.792;4.372;2023-08-31T04:44:50;14.90;99.90
24011;DHT22;12217;50.792;4.372;2023-08-31T04:47:16;14.90;99.90
24011;DHT22;12217;50.792;4.372;2023-08-31T04:49:42;14.90;99.90
24011;DHT22;12217;50.792;4.372;2023-08-31T04:52:08;14.90;99.90
24011;DHT22;12217;50.792;4.372;2023-08-31T04:54:33;14.80;99.90
24011;DHT22;12217;50.792;4.372;2023-08-31T04:56:59;14.80;99.90
24011;DHT22;12217;50.792;4.372;2023-08-31T04:59:25;14.80;99.90
24011;DHT22;12217;50.792;4.372;2023-08-31T05:01:50;14.90;99.90
24011;DHT22;12217;50.792;4.372;2023-08-31T05:04:16;14.80;99.90
24011;DHT22;12217;50.792;4.372;2023-08-31T05:06:41;14.80;99.90
24011;DHT22;12217;50.792;4.372;2023-08-31T05:09:07;14.90;99.90
24011;DHT22;12217;50.792;4.372;2023-08-31T05:11:33;14.90;99.90
24011;DHT22;12217;50.792;4.372;2023-08-31T05:13:59;14.90;99.90
24011;DHT22;12217;50.792;4.372;2023-08-31T05:16:24;14.80;99.90
24011;DHT22;12217;50.792;4.372;2023-08-31T05:18:50;14.90;99.90
24011;DHT22;12217;50.792;4.372;2023-08-31T05:21:15;14.80;99.90
24011;DHT22;12217;50.792;4.372;2023-08-31T05:23:41;14.90;99.90
24011;DHT22;12217;50.792;4.372;2023-08-31T05:26:07;14.90;99.90
24011;DHT22;12217;50.792;4.372;2023-08-31T05:28:32;14.90;99.90
24011;DHT22;12217;50.792;4.372;2023-08-31T05:31:01;14.90;99.90
24011;DHT22;12217;50.792;4.372;2023-08-31T05:33:27;14.80;99.90
24011;DHT22;12217;50.792;4.372;2023-08-31T05:35:54;14.80;99.90
24011;DHT22;12217;50.792;4.372;2023-08-31T05:38:20;14.80;99.90
24011;DHT22;12217;50.792;4.372;2023-08-31T05:40:45;14.90;99.90
24011;DHT22;12217;50.792;4.372;2023-08-31T05:43:16;14.80;99.90
24011;DHT22;12217;50.792;4.372;2023-08-31T05:45:42;14.90;99.90
24011;DHT22;12217;50.792;4.372;2023-08-31T05:48:08;14.90;99.90
24011;DHT22;12217;50.792;4.372;2023-08-31T05:50:34;14.80;99.90
24011;DHT22;12217;50.792;4.372;2023-08-31T05:53:02;14.90;99.90
24011;DHT22;12217;50.792;4.372;2023-08-31T05:55:28;14.90;99.90
24011;DHT22;12217;50.792;4.372;2023-08-31T05:57:54;14.90;99.90
24011;DHT22;12217;50.792;4.372;2023-08-31T06:00:19;14.90;99.90
24011;DHT22;12217;50.792;4.372;2023-08-31T06:02:45;14.90;99.90
24011;DHT22;12217;50.792;4.372;2023-08-31T06:05:11;14.80;99.90
24011;DHT22;12217;50.792;4.372;2023-08-31T06:07:42;14.90;99.90
24011;DHT22;12217;50.792;4.372;2023-08-31T06:10:08;14.90;99.90
24011;DHT22;12217;50.792;4.372;2023-08-31T06:12:33;14.70;99.90
24011;DHT22;12217;50.792;4.372;2023-08-31T06:14:59;14.80;99.90
24011;DHT22;12217;50.792;4.372;2023-08-31T06:17:25;14.90;99.90
24011;DHT22;12217;50.792;4.372;2023-08-31T06:19:51;14.90;99.90
24011;DHT22;12217;50.792;4.372;2023-08-31T06:22:17;14.80;99.90
24011;DHT22;12217;50.792;4.372;2023-08-31T06:24:43;14.70;99.90
24011;DHT22;12217;50.792;4.372;2023-08-31T06:27:10;14.90;99.90
24011;DHT22;12217;50.792;4.372;2023-08-31T06:29:38;14.90;99.90
24011;DHT22;12217;50.792;4.372;2023-08-31T06:32:03;15.00;99.90
24011;DHT22;12217;50.792;4.372;2023-08-31T06:34:29;15.00;99.90
24011;DHT22;12217;50.792;4.372;2023-08-31T06:36:56;15.00;99.90
24011;DHT22;12217;50.792;4.372;2023-08-31T06:39:24;15.00;99.90
24011;DHT22;12217;50.792;4.372;2023-08-31T06:41:49;15.20;99.90
24011;DHT22;12217;50.792;4.372;2023-08-31T06:44:15;15.30;99.90
24011;DHT22;12217;50.792;4.372;2023-08-31T06:46:42;15.30;99.90
24011;DHT22;12217;50.792;4.372;2023-08-31T06:49:08;15.30;99.90
24011;DHT22;12217;50.792;4.372;2023-08-31T06:51:34;15.20;99.90
24011;DHT22;12217;50.792;4.372;2023-08-31T06:54:00;15.30;99.90
24011;DHT22;12217;50.792;4.372;2023-08-31T06:56:32;15.30;99.90
24011;DHT22;12217;50.792;4.372;2023-08-31T06:58:58;15.10;99.90
24011;DHT22;12217;50.792;4.372;2023-08-31T07:01:24;15.10;99.90
24011;DHT22;12217;50.792;4.372;2023-08-31T07:03:49;15.20;99.90
24011;DHT22;12217;50.792;4.372;2023-08-31T07:06:15;15.20;99.90
24011;DHT22;12217;50.792;4.372;2023-08-31T07:08:40;15.30;99.90
24011;DHT22;12217;50.792;4.372;2023-08-31T07:11:07;15.30;99.90
24011;DHT22;12217;50.792;4.372;2023-08-31T07:13:33;15.40;99.90
24011;DHT22;12217;50.792;4.372;2023-08-31T07:15:58;15.50;99.90
24011;DHT22;12217;50.792;4.372;2023-08-31T07:18:24;15.30;99.90
24011;DHT22;12217;50.792;4.372;2023-08-31T07:20:49;15.30;99.90
24011;DHT22;12217;50.792;4.372;2023-08-31T07:23:15;15.30;99.90
24011;DHT22;12217;50.792;4.372;2023-08-31T07:25:40;15.30;99.90
24011;DHT22;12217;50.792;4.372;2023-08-31T07:28:07;15.30;99.90
24011;DHT22;12217;50.792;4.372;2023-08-31T07:30:33;15.50;99.90
24011;DHT22;12217;50.792;4.372;2023-08-31T07:32:58;15.30;99.90
24011;DHT22;12217;50.792;4.372;2023-08-31T07:35:30;15.30;99.90
24011;DHT22;12217;50.792;4.372;2023-08-31T07:37:55;15.20;99.90
24011;DHT22;12217;50.792;4.372;2023-08-31T07:40:21;15.30;99.90
24011;DHT22;12217;50.792;4.372;2023-08-31T07:42:47;15.20;99.90
24011;DHT22;12217;50.792;4.372;2023-08-31T07:45:12;15.20;99.90
24011;DHT22;12217;50.792;4.372;2023-08-31T07:47:38;15.30;99.90
24011;DHT22;12217;50.792;4.372;2023-08-31T07:50:04;15.40;99.90
24011;DHT22;12217;50.792;4.372;2023-08-31T07:52:30;15.70;99.90
24011;DHT22;12217;50.792;4.372;2023-08-31T07:54:55;15.90;99.90
24011;DHT22;12217;50.792;4.372;2023-08-31T07:57:22;16.00;99.90
24011;DHT22;12217;50.792;4.372;2023-08-31T07:59:47;16.00;99.90
24011;DHT22;12217;50.792;4.372;2023-08-31T08:02:13;16.20;99.90
24011;DHT22;12217;50.792;4.372;2023-08-31T08:04:38;16.00;99.90
24011;DHT22;12217;50.792;4.372;2023-08-31T08:07:04;16.00;99.90
24011;DHT22;12217;50.792;4.372;2023-08-31T08:09:30;16.00;99.90
24011;DHT22;12217;50.792;4.372;2023-08-31T08:11:56;16.00;99.90
24011;DHT22;12217;50.792;4.372;2023-08-31T08:14:21;16.10;99.90
24011;DHT22;12217;50.792;4.372;2023-08-31T08:16:47;16.40;99.90
24011;DHT22;12217;50.792;4.372;2023-08-31T08:19:12;16.60;99.90
24011;DHT22;12217;50.792;4.372;2023-08-31T08:21:38;16.50;99.90
24011;DHT22;12217;50.792;4.372;2023-08-31T08:24:04;16.60;99.90
24011;DHT22;12217;50.792;4.372;2023-08-31T08:26:29;16.60;99.90
24011;DHT22;12217;50.792;4.372;2023-08-31T08:28:55;16.60;99.90
24011;DHT22;12217;50.792;4.372;2023-08-31T08:31:21;16.50;99.90
24011;DHT22;12217;50.792;4.372;2023-08-31T08:33:46;16.40;99.90
24011;DHT22;12217;50.792;4.372;2023-08-31T08:36:12;16.40;99.90
24011;DHT22;12217;50.792;4.372;2023-08-31T08:38:38;16.60;99.90
24011;DHT22;12217;50.792;4.372;2023-08-31T08:41:06;16.80;99.90
24011;DHT22;12217;50.792;4.372;2023-08-31T08:43:33;16.90;99.90
24011;DHT22;12217;50.792;4.372;2023-08-31T08:46:04;17.10;99.90
24011;DHT22;12217;50.792;4.372;2023-08-31T08:48:34;17.40;99.90
24011;DHT22;12217;50.792;4.372;2023-08-31T08:51:02;17.40;99.90
24011;DHT22;12217;50.792;4.372;2023-08-31T08:53:28;17.40;99.90
24011;DHT22;12217;50.792;4.372;2023-08-31T08:55:53;17.60;99.90
24011;DHT22;12217;50.792;4.372;2023-08-31T08:58:19;17.70;99.90
24011;DHT22;12217;50.792;4.372;2023-08-31T09:00:46;17.60;99.90
24011;DHT22;12217;50.792;4.372;2023-08-31T09:03:12;17.70;99.90
24011;DHT22;12217;50.792;4.372;2023-08-31T09:05:37;17.40;99.90
24011;DHT22;12217;50.792;4.372;2023-08-31T09:08:07;17.40;99.90
24011;DHT22;12217;50.792;4.372;2023-08-31T09:10:44;17.70;99.90
24011;DHT22;12217;50.792;4.372;2023-08-31T09:13:13;17.90;99.90
24011;DHT22;12217;50.792;4.372;2023-08-31T09:15:40;18.00;99.90
24011;DHT22;12217;50.792;4.372;2023-08-31T09:18:06;18.00;99.90
24011;DHT22;12217;50.792;4.372;2023-08-31T09:20:38;18.20;99.90
24011;DHT22;12217;50.792;4.372;2023-08-31T09:23:09;18.20;99.90
24011;DHT22;12217;50.792;4.372;2023-08-31T09:25:44;18.30;99.90
24011;DHT22;12217;50.792;4.372;2023-08-31T09:28:14;18.50;99.90
24011;DHT22;12217;50.792;4.372;2023-08-31T09:30:40;18.70;99.90
24011;DHT22;12217;50.792;4.372;2023-08-31T09:33:10;18.70;99.90
24011;DHT22;12217;50.792;4.372;2023-08-31T09:35:59;18.70;99.90
24011;DHT22;12217;50.792;4.372;2023-08-31T09:38:29;18.90;99.90
24011;DHT22;12217;50.792;4.372;2023-08-31T09:41:05;19.30;99.90
24011;DHT22;12217;50.792;4.372;2023-08-31T09:43:33;19.60;99.90
24011;DHT22;12217;50.792;4.372;2023-08-31T09:46:00;19.80;99.90
24011;DHT22;12217;50.792;4.372;2023-08-31T09:48:29;20.10;99.90
24011;DHT22;12217;50.792;4.372;2023-08-31T09:50:55;20.40;99.90
24011;DHT22;12217;50.792;4.372;2023-08-31T09:53:21;20.10;99.90
24011;DHT22;12217;50.792;4.372;2023-08-31T09:55:51;20.20;99.90
24011;DHT22;12217;50.792;4.372;2023-08-31T09:58:21;20.10;99.90
24011;DHT22;12217;50.792;4.372;2023-08-31T10:00:49;19.90;99.90
24011;DHT22;12217;50.792;4.372;2023-08-31T10:03:15;19.90;99.90
24011;DHT22;12217;50.792;4.372;2023-08-31T10:05:43;19.80;99.90
24011;DHT22;12217;50.792;4.372;2023-08-31T10:08:09;19.90;99.90
24011;DHT22;12217;50.792;4.372;2023-08-31T10:10:37;19.90;99.90
24011;DHT22;12217;50.792;4.372;2023-08-31T10:13:04;20.10;99.90
24011;DHT22;12217;50.792;4.372;2023-08-31T10:15:35;20.20;99.90
24011;DHT22;12217;50.792;4.372;2023-08-31T10:18:04;20.10;99.90
24011;DHT22;12217;50.792;4.372;2023-08-31T10:20:31;20.20;99.90
24011;DHT22;12217;50.792;4.372;2023-08-31T10:23:03;20.20;99.90
24011;DHT22;12217;50.792;4.372;2023-08-31T10:28:20;20.90;99.90
24011;DHT22;12217;50.792;4.372;2023-08-31T10:31:02;20.80;99.90
24011;DHT22;12217;50.792;4.372;2023-08-31T10:36:18;20.30;99.90
24011;DHT22;12217;50.792;4.372;2023-08-31T10:41:23;19.80;99.90
24011;DHT22;12217;50.792;4.372;2023-08-31T10:43:55;19.60;99.90
24011;DHT22;12217;50.792;4.372;2023-08-31T10:46:42;19.70;99.90
24011;DHT22;12217;50.792;4.372;2023-08-31T10:51:42;20.20;99.90
24011;DHT22;12217;50.792;4.372;2023-08-31T10:59:47;20.20;99.90
24011;DHT22;12217;50.792;4.372;2023-08-31T11:02:34;20.30;99.90
24011;DHT22;12217;50.792;4.372;2023-08-31T11:07:32;20.90;99.90
24011;DHT22;12217;50.792;4.372;2023-08-31T11:10:16;21.10;99.90
24011;DHT22;12217;50.792;4.372;2023-08-31T11:12:45;21.60;99.90
24011;DHT22;12217;50.792;4.372;2023-08-31T11:15:12;21.50;99.90
24011;DHT22;12217;50.792;4.372;2023-08-31T11:17:40;21.30;99.90
24011;DHT22;12217;50.792;4.372;2023-08-31T11:20:06;21.00;99.90
24011;DHT22;12217;50.792;4.372;2023-08-31T11:22:38;20.80;99.90
24011;DHT22;12217;50.792;4.372;2023-08-31T11:25:04;20.80;99.90
24011;DHT22;12217;50.792;4.372;2023-08-31T11:27:30;21.00;99.90
24011;DHT22;12217;50.792;4.372;2023-08-31T11:29:55;21.40;99.90
24011;DHT22;12217;50.792;4.372;2023-08-31T11:32:24;21.90;99.90
24011;DHT22;12217;50.792;4.372;2023-08-31T11:34:50;22.20;99.90
24011;DHT22;12217;50.792;4.372;2023-08-31T11:37:16;22.20;99.90
24011;DHT22;12217;50.792;4.372;2023-08-31T11:39:50;22.20;99.90
24011;DHT22;12217;50.792;4.372;2023-08-31T11:42:16;22.00;99.90
24011;DHT22;12217;50.792;4.372;2023-08-31T11:44:53;22.00;99.90
24011;DHT22;12217;50.792;4.372;2023-08-31T11:47:20;21.90;99.90
24011;DHT22;12217;50.792;4.372;2023-08-31T11:49:46;21.90;99.90
24011;DHT22;12217;50.792;4.372;2023-08-31T11:52:14;21.60;99.90
24011;DHT22;12217;50.792;4.372;2023-08-31T11:54:41;21.40;99.90
24011;DHT22;12217;50.792;4.372;2023-08-31T11:57:08;21.20;99.90
24011;DHT22;12217;50.792;4.372;2023-08-31T11:59:38;20.60;99.90
24011;DHT22;12217;50.792;4.372;2023-08-31T12:02:07;20.30;99.90
24011;DHT22;12217;50.792;4.372;2023-08-31T12:04:43;20.20;99.90
24011;DHT22;12217;50.792;4.372;2023-08-31T12:07:21;20.10;99.90
24011;DHT22;12217;50.792;4.372;2023-08-31T12:09:48;20.10;99.90
24011;DHT22;12217;50.792;4.372;2023-08-31T12:12:14;20.20;99.90
24011;DHT22;12217;50.792;4.372;2023-08-31T12:14:43;20.40;99.90
24011;DHT22;12217;50.792;4.372;2023-08-31T12:17:09;20.40;99.90
24011;DHT22;12217;50.792;4.372;2023-08-31T12:19:38;20.40;99.90
24011;DHT22;12217;50.792;4.372;2023-08-31T12:22:05;20.40;99.90
24011;DHT22;12217;50.792;4.372;2023-08-31T12:24:39;20.40;99.90
24011;DHT22;12217;50.792;4.372;2023-08-31T12:27:09;20.50;99.90
24011;DHT22;12217;50.792;4.372;2023-08-31T12:29:35;20.60;99.90
24011;DHT22;12217;50.792;4.372;2023-08-31T12:32:01;20.70;99.90
24011;DHT22;12217;50.792;4.372;2023-08-31T12:34:29;20.70;99.90
24011;DHT22;12217;50.792;4.372;2023-08-31T12:36:56;20.50;99.90
24011;DHT22;12217;50.792;4.372;2023-08-31T12:39:25;20.40;99.90
24011;DHT22;12217;50.792;4.372;2023-08-31T12:41:50;20.50;99.90
24011;DHT22;12217;50.792;4.372;2023-08-31T12:44:16;20.60;99.90
24011;DHT22;12217;50.792;4.372;2023-08-31T12:46:42;20.70;99.90
24011;DHT22;12217;50.792;4.372;2023-08-31T12:49:07;20.80;99.90
24011;DHT22;12217;50.792;4.372;2023-08-31T12:51:33;20.80;99.90
24011;DHT22;12217;50.792;4.372;2023-08-31T12:53:58;20.80;99.90
24011;DHT22;12217;50.792;4.372;2023-08-31T12:56:24;20.80;99.90
24011;DHT22;12217;50.792;4.372;2023-08-31T12:58:54;20.80;99.90
24011;DHT22;12217;50.792;4.372;2023-08-31T13:01:21;20.70;99.90
24011;DHT22;12217;50.792;4.372;2023-08-31T13:03:48;20.70;99.90
24011;DHT22;12217;50.792;4.372;2023-08-31T13:06:14;20.70;99.90
24011;DHT22;12217;50.792;4.372;2023-08-31T13:08:42;20.70;99.90
24011;DHT22;12217;50.792;4.372;2023-08-31T13:11:09;20.60;99.90
24011;DHT22;12217;50.792;4.372;2023-08-31T13:13:35;20.40;99.90
24011;DHT22;12217;50.792;4.372;2023-08-31T13:16:00;20.70;99.90
24011;DHT22;12217;50.792;4.372;2023-08-31T13:18:26;20.80;99.90
24011;DHT22;12217;50.792;4.372;2023-08-31T13:20:53;20.80;99.90
24011;DHT22;12217;50.792;4.372;2023-08-31T13:23:19;20.90;99.90
24011;DHT22;12217;50.792;4.372;2023-08-31T13:25:45;21.10;99.90
24011;DHT22;12217;50.792;4.372;2023-08-31T13:28:11;21.10;99.90
24011;DHT22;12217;50.792;4.372;2023-08-31T13:30:37;21.30;99.90
24011;DHT22;12217;50.792;4.372;2023-08-31T13:33:03;21.20;99.90
24011;DHT22;12217;50.792;4.372;2023-08-31T13:35:30;21.20;99.90
24011;DHT22;12217;50.792;4.372;2023-08-31T13:37:55;21.00;99.90
24011;DHT22;12217;50.792;4.372;2023-08-31T13:40:21;20.90;99.90
24011;DHT22;12217;50.792;4.372;2023-08-31T13:43:13;20.90;99.90
24011;DHT22;12217;50.792;4.372;2023-08-31T13:45:39;21.00;99.90
24011;DHT22;12217;50.792;4.372;2023-08-31T13:48:04;20.70;99.90
24011;DHT22;12217;50.792;4.372;2023-08-31T13:50:30;20.70;99.90
24011;DHT22;12217;50.792;4.372;2023-08-31T13:52:56;20.80;99.90
24011;DHT22;12217;50.792;4.372;2023-08-31T13:55:22;21.00;99.90
24011;DHT22;12217;50.792;4.372;2023-08-31T13:57:49;21.30;99.90
24011;DHT22;12217;50.792;4.372;2023-08-31T14:00:15;21.50;99.90
24011;DHT22;12217;50.792;4.372;2023-08-31T14:02:42;21.60;99.90
24011;DHT22;12217;50.792;4.372;2023-08-31T14:05:09;21.80;99.90
24011;DHT22;12217;50.792;4.372;2023-08-31T14:07:38;21.70;99.90
24011;DHT22;12217;50.792;4.372;2023-08-31T14:10:04;21.10;99.90
24011;DHT22;12217;50.792;4.372;2023-08-31T14:12:33;20.70;99.90
24011;DHT22;12217;50.792;4.372;2023-08-31T14:14:59;20.70;99.90
24011;DHT22;12217;50.792;4.372;2023-08-31T14:17:29;20.50;99.90
24011;DHT22;12217;50.792;4.372;2023-08-31T14:19:55;20.60;99.90
24011;DHT22;12217;50.792;4.372;2023-08-31T14:22:21;20.50;99.90
24011;DHT22;12217;50.792;4.372;2023-08-31T14:24:48;20.60;99.90
24011;DHT22;12217;50.792;4.372;2023-08-31T14:27:13;20.50;99.90
24011;DHT22;12217;50.792;4.372;2023-08-31T14:29:39;20.40;99.90
24011;DHT22;12217;50.792;4.372;2023-08-31T14:32:05;20.50;99.90
24011;DHT22;12217;50.792;4.372;2023-08-31T14:34:31;20.70;99.90
24011;DHT22;12217;50.792;4.372;2023-08-31T14:36:57;20.80;99.90
24011;DHT22;12217;50.792;4.372;2023-08-31T14:39:24;20.90;99.90
24011;DHT22;12217;50.792;4.372;2023-08-31T14:41:55;20.80;99.90
24011;DHT22;12217;50.792;4.372;2023-08-31T14:44:21;20.70;99.90
24011;DHT22;12217;50.792;4.372;2023-08-31T14:46:47;20.60;99.90
24011;DHT22;12217;50.792;4.372;2023-08-31T14:49:13;20.50;99.90
24011;DHT22;12217;50.792;4.372;2023-08-31T14:51:39;20.40;99.90
24011;DHT22;12217;50.792;4.372;2023-08-31T14:54:05;20.30;99.90
24011;DHT22;12217;50.792;4.372;2023-08-31T14:56:31;20.10;99.90
24011;DHT22;12217;50.792;4.372;2023-08-31T14:58:57;20.00;99.90
24011;DHT22;12217;50.792;4.372;2023-08-31T15:01:23;20.10;99.90
24011;DHT22;12217;50.792;4.372;2023-08-31T15:03:50;20.10;99.90
24011;DHT22;12217;50.792;4.372;2023-08-31T15:06:15;20.00;99.90
24011;DHT22;12217;50.792;4.372;2023-08-31T15:08:41;19.80;99.90
24011;DHT22;12217;50.792;4.372;2023-08-31T15:11:08;19.80;99.90
24011;DHT22;12217;50.792;4.372;2023-08-31T15:13:34;19.60;99.90
24011;DHT22;12217;50.792;4.372;2023-08-31T15:16:00;19.60;99.90
24011;DHT22;12217;50.792;4.372;2023-08-31T15:18:30;19.40;99.90
24011;DHT22;12217;50.792;4.372;2023-08-31T15:20:56;19.50;99.90
24011;DHT22;12217;50.792;4.372;2023-08-31T15:23:22;19.60;99.90
24011;DHT22;12217;50.792;4.372;2023-08-31T15:25:50;19.60;99.90
24011;DHT22;12217;50.792;4.372;2023-08-31T15:28:16;19.60;99.90
24011;DHT22;12217;50.792;4.372;2023-08-31T15:30:42;19.80;99.90
24011;DHT22;12217;50.792;4.372;2023-08-31T15:33:07;19.90;99.90
24011;DHT22;12217;50.792;4.372;2023-08-31T15:35:33;20.00;99.90
24011;DHT22;12217;50.792;4.372;2023-08-31T15:37:59;20.00;99.90
24011;DHT22;12217;50.792;4.372;2023-08-31T15:40:25;19.80;99.90
24011;DHT22;12217;50.792;4.372;2023-08-31T15:42:51;19.80;99.90
24011;DHT22;12217;50.792;4.372;2023-08-31T15:45:17;19.80;99.90
24011;DHT22;12217;50.792;4.372;2023-08-31T15:47:43;19.70;99.90
24011;DHT22;12217;50.792;4.372;2023-08-31T15:50:09;19.70;99.90
24011;DHT22;12217;50.792;4.372;2023-08-31T15:52:35;19.70;99.90